Ardmore, Maryland
Current Conditions -  °F | °C
As of 5:35 PM on Friday 24 Oct 2014 (Local Time) from KCGS Reporting Station
Clear Clear  
Wind Chill: 66°   Ceiling: Unl
Heat Index: 66°   Visibility: 10mi
Dew Point: 32°   Wind: 9mph
Humidity: 28%   Direction: 290°WNW
Pressure: 29.89"   Gusts: 17mph
Location:  38.9183°N, 76.8721°W
Report Text: KCGS 242135Z AUTO 29008G15KT 10SM CLR 19/00 A2989 RMK AO1
Loading
Personal Weather Stations






























Interactive Weather Map New forecast layout! Learn more

10-Day Weather Forecast

Advertisements
Track Severe Weather on mobile